Time;durP1;ratioP1;P1;durP2;ratioP2;P2;SDS_P1;SDS_P2;PMS_P1;PMS_P2;Temp;Humidity;BMP_temperature;BMP_pressure;BME280_temperature;BME280_humidity;BME280_pressure;Samples;Min_cycle;Max_cycle;Signal;HPM_P1;HPM_P2
2021/03/14 00:00:42;;;;;;;;;;;5.70;99.10;;;;;;5105910;28;20086;-81
2021/03/14 00:03:09;;;;;;;14.60;2.67;;;5.70;99.00;;;;;;5104958;28;20376;-81
2021/03/14 00:05:37;;;;;;;16.65;2.50;;;5.70;99.00;;;;;;5104955;28;20052;-81
2021/03/14 00:08:05;;;;;;;14.23;2.88;;;5.70;98.90;;;;;;5104372;28;20048;-81
2021/03/14 00:10:31;;;;;;;14.18;2.63;;;5.70;98.70;;;;;;5105195;28;20055;-82
2021/03/14 00:12:57;;;;;;;13.63;2.55;;;5.70;98.90;;;;;;5104433;28;20147;-81
2021/03/14 00:15:23;;;;;;;14.30;2.70;;;5.70;98.90;;;;;;5105062;28;20068;-82
2021/03/14 00:17:49;;;;;;;17.15;2.42;;;5.70;98.80;;;;;;5104776;28;20052;-82
2021/03/14 00:20:18;;;;;;;14.27;2.97;;;5.60;99.00;;;;;;5105138;28;20113;-81
2021/03/14 00:22:45;;;;;;;15.23;2.40;;;5.70;99.10;;;;;;5105718;28;20067;-82
2021/03/14 00:25:12;;;;;;;16.75;2.33;;;5.70;98.70;;;;;;5103481;28;20275;-82
2021/03/14 00:27:39;;;;;;;14.85;2.88;;;5.70;98.90;;;;;;5105562;28;20047;-82
2021/03/14 00:30:06;;;;;;;17.30;2.55;;;5.70;98.70;;;;;;5104852;28;20044;-82
2021/03/14 00:32:33;;;;;;;14.93;2.92;;;5.70;98.90;;;;;;5104468;28;20056;-82
2021/03/14 00:34:59;;;;;;;15.57;2.83;;;5.80;98.50;;;;;;5104706;28;20040;-82
2021/03/14 00:37:25;;;;;;;13.88;2.83;;;5.80;98.30;;;;;;5104770;28;20059;-82
2021/03/14 00:39:51;;;;;;;10.57;1.92;;;5.80;98.50;;;;;;5091243;28;20292;-82
2021/03/14 00:42:16;;;;;;;11.48;2.20;;;5.70;98.80;;;;;;5104323;28;20044;-83
2021/03/14 00:44:46;;;;;;;11.80;2.80;;;5.70;98.70;;;;;;5104728;28;20040;-82
2021/03/14 00:47:12;;;;;;;14.82;2.50;;;5.70;98.20;;;;;;5104418;28;20055;-82
2021/03/14 00:49:38;;;;;;;13.20;2.83;;;5.60;98.30;;;;;;5104632;28;20200;-83
2021/03/14 00:52:04;;;;;;;14.23;2.08;;;5.60;98.40;;;;;;5105500;28;20066;-82
2021/03/14 00:54:32;;;;;;;15.35;2.33;;;5.70;98.40;;;;;;5105444;28;20051;-83
2021/03/14 00:56:58;;;;;;;11.93;1.95;;;5.70;98.00;;;;;;5105171;28;20040;-83
2021/03/14 00:59:23;;;;;;;12.20;2.53;;;5.60;97.80;;;;;;5104238;28;20124;-83
2021/03/14 01:01:49;;;;;;;13.13;2.00;;;5.70;97.80;;;;;;5104769;28;20078;-83
2021/03/14 01:04:15;;;;;;;11.65;1.98;;;5.60;97.90;;;;;;5107463;28;20040;-83
2021/03/14 01:06:41;;;;;;;12.55;2.10;;;5.70;97.80;;;;;;5108633;28;20067;-83
2021/03/14 01:09:07;;;;;;;9.70;1.88;;;5.70;97.70;;;;;;5108096;28;20353;-83
2021/03/14 01:11:33;;;;;;;10.82;1.80;;;5.60;98.10;;;;;;5108268;28;20048;-84
2021/03/14 01:13:58;;;;;;;12.77;1.77;;;5.60;98.00;;;;;;5108069;28;20055;-84
2021/03/14 01:16:24;;;;;;;10.55;2.45;;;5.60;98.40;;;;;;5108010;28;20078;-84
2021/03/14 01:18:50;;;;;;;18.10;2.92;;;5.60;98.20;;;;;;5107107;28;20043;-83
2021/03/14 01:21:16;;;;;;;15.00;1.95;;;5.60;97.90;;;;;;5107949;28;20079;-83
2021/03/14 01:23:43;;;;;;;13.88;2.58;;;5.60;98.00;;;;;;5107396;28;20036;-83
2021/03/14 01:26:09;;;;;;;16.63;3.70;;;5.60;98.40;;;;;;5107544;28;20078;-83
2021/03/14 01:28:35;;;;;;;13.13;2.88;;;5.60;98.00;;;;;;5107436;28;20488;-84
2021/03/14 01:31:01;;;;;;;11.25;2.15;;;5.60;98.40;;;;;;5107596;28;20055;-84
2021/03/14 01:33:27;;;;;;;12.13;1.98;;;5.60;98.40;;;;;;5108150;28;20038;-84
2021/03/14 01:35:53;;;;;;;12.38;2.58;;;5.60;98.40;;;;;;5108333;28;20040;-84
2021/03/14 01:38:19;;;;;;;14.50;2.53;;;5.60;98.50;;;;;;5108012;28;20042;-84
2021/03/14 01:40:45;;;;;;;14.13;3.08;;;5.60;98.60;;;;;;5107331;28;20549;-84
2021/03/14 01:43:11;;;;;;;15.10;2.47;;;5.60;98.70;;;;;;5089164;28;20487;-83
2021/03/14 01:45:37;;;;;;;14.93;2.00;;;5.50;99.20;;;;;;5107312;28;20044;-83
2021/03/14 01:48:06;;;;;;;13.30;2.72;;;5.50;99.00;;;;;;5107387;28;20112;-83
2021/03/14 01:50:33;;;;;;;16.97;2.87;;;5.50;99.40;;;;;;5107128;28;20051;-84
2021/03/14 01:53:00;;;;;;;15.90;3.42;;;5.50;99.10;;;;;;5107848;28;20290;-84
2021/03/14 01:55:26;;;;;;;14.93;2.65;;;5.60;99.00;;;;;;5107823;28;20181;-84
2021/03/14 01:57:52;;;;;;;12.18;2.53;;;5.60;99.20;;;;;;5107766;28;20040;-82
2021/03/14 02:00:22;;;;;;;15.45;2.30;;;5.60;99.10;;;;;;5089900;28;20044;-84
2021/03/14 02:02:48;;;;;;;19.45;2.83;;;5.60;99.00;;;;;;5089547;28;20094;-82
2021/03/14 02:05:16;;;;;;;15.57;3.17;;;5.50;99.30;;;;;;5106765;28;20047;-82
2021/03/14 02:07:44;;;;;;;20.33;5.20;;;5.60;99.00;;;;;;5106901;28;20419;-82
2021/03/14 02:10:13;;;;;;;13.10;3.03;;;5.60;98.80;;;;;;5107162;28;20110;-83
2021/03/14 02:12:50;;;;;;;15.80;2.53;;;5.60;98.90;;;;;;5106613;28;20048;-82
2021/03/14 02:15:17;;;;;;;16.75;3.80;;;5.60;99.10;;;;;;5105482;28;20101;-82
2021/03/14 02:17:43;;;;;;;19.98;3.08;;;5.60;98.90;;;;;;5106667;28;20044;-82
2021/03/14 02:20:16;;;;;;;19.25;3.47;;;5.60;98.70;;;;;;5107415;28;20056;-83
2021/03/14 02:22:45;;;;;;;10.48;2.22;;;5.60;99.30;;;;;;5107327;28;20047;-82
2021/03/14 02:25:22;;;;;;;17.05;3.25;;;5.50;98.80;;;;;;5104969;28;20422;-82
2021/03/14 02:27:48;;;;;;;15.70;2.53;;;5.60;98.70;;;;;;5106342;28;20043;-82
2021/03/14 02:30:15;;;;;;;17.33;2.28;;;5.60;98.70;;;;;;5106367;28;20036;-82
2021/03/14 02:32:43;;;;;;;15.70;3.42;;;5.50;98.70;;;;;;5106323;28;20063;-82
2021/03/14 02:35:09;;;;;;;17.25;3.00;;;5.50;98.70;;;;;;5088794;28;20050;-82
2021/03/14 02:37:37;;;;;;;17.65;2.90;;;5.50;98.90;;;;;;5107259;28;20044;-81
2021/03/14 02:40:06;;;;;;;15.15;2.58;;;5.50;98.70;;;;;;5106246;28;20048;-81
2021/03/14 02:42:34;;;;;;;13.85;2.63;;;5.50;98.80;;;;;;5105949;28;20036;-82
2021/03/14 02:45:00;;;;;;;12.23;2.65;;;5.50;99.00;;;;;;5094156;28;20076;-81
2021/03/14 02:47:27;;;;;;;17.65;3.95;;;5.50;99.10;;;;;;5103511;28;20051;-82
2021/03/14 02:49:53;;;;;;;21.75;3.70;;;5.50;99.20;;;;;;5106026;28;20051;-82
2021/03/14 02:52:21;;;;;;;17.58;2.53;;;5.50;99.00;;;;;;5105986;28;20036;-82
2021/03/14 02:54:50;;;;;;;18.10;3.80;;;5.60;99.00;;;;;;5106162;28;20048;-81
2021/03/14 02:57:23;;;;;;;14.95;3.05;;;5.60;99.00;;;;;;5105671;28;20047;-81
2021/03/14 02:59:50;;;;;;;13.13;3.00;;;5.50;99.00;;;;;;5092629;28;20139;-82
2021/03/14 03:02:18;;;;;;;20.08;3.35;;;5.50;99.40;;;;;;5099936;28;20044;-81
2021/03/14 03:04:45;;;;;;;15.43;2.97;;;5.50;99.30;;;;;;5097429;28;20115;-81
2021/03/14 03:07:14;;;;;;;17.58;3.72;;;5.50;99.50;;;;;;5105421;28;20118;-81
2021/03/14 03:09:41;;;;;;;14.63;2.85;;;5.60;99.30;;;;;;5096719;28;20051;-81
2021/03/14 03:12:08;;;;;;;14.85;2.58;;;5.60;99.00;;;;;;5106151;28;20046;-81
2021/03/14 03:14:34;;;;;;;18.73;3.22;;;5.60;99.50;;;;;;5105483;28;20048;-81
2021/03/14 03:17:01;;;;;;;18.63;3.63;;;5.70;98.80;;;;;;5105505;28;20047;-81
2021/03/14 03:19:28;;;;;;;29.73;3.50;;;5.60;98.90;;;;;;5105331;28;20048;-81
2021/03/14 03:21:54;;;;;;;22.83;3.53;;;5.60;99.10;;;;;;5105324;28;20036;-81
2021/03/14 03:24:20;;;;;;;18.38;2.75;;;5.60;99.10;;;;;;5103741;28;20055;-81
2021/03/14 03:26:48;;;;;;;13.88;2.95;;;5.60;99.10;;;;;;5090383;28;20503;-81
2021/03/14 03:29:15;;;;;;;20.35;3.53;;;5.60;98.90;;;;;;5105211;28;20044;-81
2021/03/14 03:31:42;;;;;;;19.35;3.28;;;5.60;98.90;;;;;;5105521;28;20040;-81
2021/03/14 03:34:09;;;;;;;21.77;3.60;;;5.60;98.90;;;;;;5105980;28;20043;-81
2021/03/14 03:36:36;;;;;;;19.85;3.28;;;5.50;99.10;;;;;;5105038;28;20127;-81
2021/03/14 03:39:07;;;;;;;16.10;3.75;;;5.50;99.20;;;;;;5105523;28;20047;-81
2021/03/14 03:41:36;;;;;;;16.02;3.50;;;5.50;98.90;;;;;;5105056;28;20039;-81
2021/03/14 03:44:03;;;;;;;18.23;3.38;;;5.50;99.10;;;;;;5105135;28;20048;-81
2021/03/14 03:46:30;;;;;;;18.13;3.58;;;5.50;99.30;;;;;;5105292;28;20043;-80
2021/03/14 03:48:57;;;;;;;19.20;3.88;;;5.40;99.40;;;;;;5105540;28;20070;-81
2021/03/14 03:51:27;;;;;;;18.40;3.40;;;5.50;99.40;;;;;;5105176;28;20036;-81
2021/03/14 03:53:56;;;;;;;18.42;3.47;;;5.40;99.30;;;;;;5087654;28;20052;-81
2021/03/14 03:56:22;;;;;;;21.27;4.30;;;5.40;99.60;;;;;;5105124;28;20036;-81
2021/03/14 03:58:51;;;;;;;20.25;4.28;;;5.30;99.70;;;;;;5105502;28;20055;-81
2021/03/14 04:01:17;;;;;;;17.48;3.28;;;5.40;99.50;;;;;;5105660;28;20039;-80
2021/03/14 04:03:45;;;;;;;19.08;3.50;;;5.40;99.40;;;;;;5105282;28;20131;-81
2021/03/14 04:06:13;;;;;;;19.85;3.47;;;5.30;99.60;;;;;;5104456;28;20051;-81
2021/03/14 04:08:42;;;;;;;20.13;3.85;;;5.30;99.60;;;;;;5105097;28;20039;-81
2021/03/14 04:11:11;;;;;;;18.55;3.33;;;5.30;99.50;;;;;;5105264;28;20044;-82
2021/03/14 04:13:39;;;;;;;15.75;3.45;;;5.30;99.60;;;;;;5105799;28;20106;-81
2021/03/14 04:16:06;;;;;;;20.50;3.85;;;5.30;99.70;;;;;;5105042;28;20067;-81
2021/03/14 04:18:33;;;;;;;19.73;3.67;;;5.30;99.80;;;;;;5104527;28;20040;-81
2021/03/14 04:21:01;;;;;;;17.70;3.22;;;5.20;99.80;;;;;;5086159;28;20059;-81
2021/03/14 04:23:28;;;;;;;16.50;3.28;;;5.20;99.90;;;;;;5105085;28;20040;-81
2021/03/14 04:25:56;;;;;;;15.43;3.63;;;5.20;99.90;;;;;;5104895;28;20097;-81
2021/03/14 04:28:29;;;;;;;16.70;3.15;;;5.20;99.90;;;;;;5104691;28;20052;-81
2021/03/14 04:30:57;;;;;;;20.17;3.85;;;5.20;99.90;;;;;;5086318;28;20036;-81
2021/03/14 04:33:23;;;;;;;21.85;4.43;;;5.20;99.90;;;;;;5104402;28;20067;-81
2021/03/14 04:35:51;;;;;;;18.02;3.55;;;5.30;99.90;;;;;;5104862;28;20040;-81
2021/03/14 04:38:18;;;;;;;19.85;3.75;;;5.30;99.70;;;;;;5105845;28;20048;-81
2021/03/14 04:40:45;;;;;;;19.58;3.20;;;5.40;99.70;;;;;;5108762;28;20052;-81
2021/03/14 04:43:12;;;;;;;17.20;3.97;;;5.40;99.50;;;;;;5108069;28;20044;-81
2021/03/14 04:45:39;;;;;;;16.48;3.30;;;5.30;99.50;;;;;;5108770;28;20044;-81
2021/03/14 04:48:06;;;;;;;16.92;3.38;;;5.30;99.80;;;;;;5108583;28;20048;-81
2021/03/14 04:50:32;;;;;;;19.25;4.05;;;5.30;99.70;;;;;;5108962;28;20055;-81
2021/03/14 04:53:02;;;;;;;16.95;3.75;;;5.30;99.70;;;;;;5108146;28;20055;-81
2021/03/14 04:55:32;;;;;;;17.95;3.30;;;5.30;99.70;;;;;;5108490;28;20071;-81
2021/03/14 04:58:00;;;;;;;17.75;3.95;;;5.30;99.60;;;;;;5108221;28;20059;-81
2021/03/14 05:00:27;;;;;;;16.55;4.90;;;5.30;99.60;;;;;;5090093;28;20532;-81
2021/03/14 05:02:57;;;;;;;8.82;3.22;;;5.40;99.40;;;;;;5107824;28;20047;-81
2021/03/14 05:05:24;;;;;;;17.67;3.25;;;5.40;99.30;;;;;;5108141;28;20044;-81
2021/03/14 05:07:51;;;;;;;20.25;3.30;;;5.40;99.30;;;;;;5107989;28;20070;-81
2021/03/14 05:10:24;;;;;;;14.93;2.80;;;5.30;99.40;;;;;;5108080;28;20074;-81
2021/03/14 05:12:51;;;;;;;14.88;3.28;;;5.30;99.20;;;;;;5108327;28;20036;-81
2021/03/14 05:15:19;;;;;;;14.43;2.80;;;5.30;99.30;;;;;;5107901;28;20102;-80
2021/03/14 05:17:47;;;;;;;16.52;3.88;;;5.30;99.20;;;;;;5108086;28;20059;-81
2021/03/14 05:20:18;;;;;;;15.68;3.17;;;5.30;99.30;;;;;;5107339;28;20056;-81
2021/03/14 05:22:45;;;;;;;13.07;3.22;;;5.20;99.40;;;;;;5107708;28;20054;-81
2021/03/14 05:25:13;;;;;;;12.70;2.70;;;5.20;99.50;;;;;;5107524;28;20055;-80
2021/03/14 05:27:42;;;;;;;18.10;3.22;;;5.20;99.60;;;;;;5107539;28;20059;-81
2021/03/14 05:30:09;;;;;;;15.60;3.20;;;5.20;99.70;;;;;;5108559;28;20108;-81
2021/03/14 05:32:34;;;;;;;20.08;3.53;;;5.10;99.90;;;;;;5107267;28;20052;-81
2021/03/14 05:35:00;;;;;;;11.00;2.53;;;5.10;99.80;;;;;;5107511;28;20048;-81
2021/03/14 05:37:26;;;;;;;17.63;3.30;;;5.10;99.90;;;;;;5107624;28;20043;-81
2021/03/14 05:39:52;;;;;;;17.88;3.25;;;5.10;99.90;;;;;;5107326;28;20051;-81
2021/03/14 05:42:18;;;;;;;14.38;3.70;;;5.10;99.90;;;;;;5107013;28;20063;-81
2021/03/14 05:44:47;;;;;;;14.30;3.38;;;5.10;99.90;;;;;;5108275;28;20092;-81
2021/03/14 05:47:14;;;;;;;16.85;3.72;;;5.10;99.90;;;;;;5107536;28;20131;-81
2021/03/14 05:49:39;;;;;;;15.77;3.20;;;5.10;99.90;;;;;;5106929;28;20055;-81
2021/03/14 05:52:07;;;;;;;13.35;3.08;;;5.10;99.90;;;;;;5107402;28;20043;-81
2021/03/14 05:54:34;;;;;;;16.48;3.95;;;5.10;99.90;;;;;;5107299;28;20052;-81
2021/03/14 05:57:02;;;;;;;20.75;4.15;;;5.10;99.90;;;;;;5107223;28;20050;-81
2021/03/14 05:59:30;;;;;;;23.75;4.43;;;5.00;99.90;;;;;;5089226;28;20108;-81
2021/03/14 06:01:57;;;;;;;15.02;3.88;;;5.10;99.90;;;;;;5107587;28;20048;-81
2021/03/14 06:04:25;;;;;;;17.98;4.05;;;5.10;99.90;;;;;;5106825;28;20040;-81
2021/03/14 06:06:51;;;;;;;15.52;4.32;;;5.10;99.90;;;;;;5106702;28;20040;-81
2021/03/14 06:09:17;;;;;;;22.63;4.65;;;5.10;99.90;;;;;;5107096;28;20051;-81
2021/03/14 06:11:43;;;;;;;12.25;3.60;;;5.10;99.90;;;;;;5106682;28;20040;-80
2021/03/14 06:14:09;;;;;;;17.70;3.78;;;5.10;99.90;;;;;;5107505;28;20048;-80
2021/03/14 06:16:35;;;;;;;18.65;4.25;;;5.20;99.90;;;;;;5107496;28;20040;-81
2021/03/14 06:19:01;;;;;;;15.70;3.80;;;5.10;99.90;;;;;;5106584;28;20058;-81
2021/03/14 06:21:30;;;;;;;12.48;3.95;;;5.20;99.90;;;;;;5106775;28;20032;-81
2021/03/14 06:24:04;;;;;;;14.15;4.07;;;5.20;99.90;;;;;;5104847;28;20048;-81
2021/03/14 06:26:47;;;;;;;16.50;3.97;;;5.20;99.90;;;;;;5106819;28;20055;-81
2021/03/14 06:29:19;;;;;;;14.50;3.40;;;5.20;99.90;;;;;;5106930;28;20051;-81
2021/03/14 06:31:47;;;;;;;14.35;3.55;;;5.30;99.90;;;;;;5106515;28;20119;-79
2021/03/14 06:34:25;;;;;;;14.18;3.63;;;5.20;99.90;;;;;;5106085;28;20047;-81
2021/03/14 06:36:52;;;;;;;13.48;3.47;;;5.30;99.90;;;;;;5106796;28;20052;-81
2021/03/14 06:39:29;;;;;;;19.52;4.70;;;5.30;99.90;;;;;;5106272;28;20058;-80
2021/03/14 06:41:55;;;;;;;15.73;4.13;;;5.20;99.90;;;;;;5106210;28;20147;-80
2021/03/14 06:44:23;;;;;;;10.85;3.67;;;5.10;99.90;;;;;;5105943;28;20044;-81
2021/03/14 06:46:49;;;;;;;18.73;4.20;;;5.20;99.90;;;;;;5106973;28;20047;-80
2021/03/14 06:49:17;;;;;;;12.57;3.47;;;5.20;99.90;;;;;;5107319;28;20076;-81
2021/03/14 06:51:43;;;;;;;15.13;3.63;;;5.20;99.90;;;;;;5105252;28;20102;-81
2021/03/14 06:54:38;;;;;;;14.27;3.58;;;5.30;99.90;;;;;;5106089;28;20048;-81
2021/03/14 06:57:20;;;;;;;13.57;3.50;;;5.30;99.90;;;;;;5105734;28;20032;-81
2021/03/14 06:59:51;;;;;;;14.85;3.22;;;5.40;99.90;;;;;;5105841;28;20048;-81
2021/03/14 07:02:25;;;;;;;12.63;3.28;;;5.50;99.90;;;;;;5105304;28;20043;-81
2021/03/14 07:04:56;;;;;;;13.55;3.92;;;5.50;99.90;;;;;;5105748;28;20036;-79
2021/03/14 07:07:41;;;;;;;17.65;3.90;;;5.50;99.90;;;;;;5105671;28;20040;-81
2021/03/14 07:10:15;;;;;;;20.02;3.40;;;5.60;99.80;;;;;;5105543;28;20101;-81
2021/03/14 07:12:43;;;;;;;13.30;3.67;;;5.60;99.90;;;;;;5105335;28;20067;-80
2021/03/14 07:15:14;;;;;;;18.52;4.35;;;5.70;99.70;;;;;;5105444;28;20123;-81
2021/03/14 07:17:41;;;;;;;11.95;2.58;;;5.70;99.30;;;;;;5105749;28;20538;-81
2021/03/14 07:20:09;;;;;;;13.30;4.18;;;5.60;99.60;;;;;;5105091;28;20079;-81
2021/03/14 07:22:35;;;;;;;13.20;2.83;;;5.60;99.60;;;;;;5105464;28;20079;-80
2021/03/14 07:25:02;;;;;;;11.63;2.63;;;5.60;99.30;;;;;;5104018;28;20063;-81
2021/03/14 07:27:31;;;;;;;11.10;2.80;;;5.60;99.40;;;;;;5105427;28;20073;-80
2021/03/14 07:29:59;;;;;;;19.67;3.60;;;5.60;99.60;;;;;;5105258;28;20070;-80
2021/03/14 07:32:26;;;;;;;11.20;2.78;;;5.70;99.30;;;;;;5105375;28;20557;-80
2021/03/14 07:34:53;;;;;;;8.27;2.35;;;5.70;99.40;;;;;;5105740;28;20048;-80
2021/03/14 07:37:20;;;;;;;14.38;2.85;;;5.80;99.70;;;;;;5106158;28;20048;-81
2021/03/14 07:39:47;;;;;;;10.00;2.92;;;5.80;99.40;;;;;;5106177;28;20051;-80
2021/03/14 07:42:21;;;;;;;11.23;3.10;;;5.90;99.20;;;;;;5105302;28;20039;-81
2021/03/14 07:44:47;;;;;;;10.40;3.10;;;6.00;99.10;;;;;;5100703;28;20052;-81
2021/03/14 07:47:15;;;;;;;10.70;2.67;;;5.90;98.40;;;;;;5105201;28;20078;-80
2021/03/14 07:49:49;;;;;;;15.18;2.58;;;5.80;98.90;;;;;;5104912;28;20500;-81
2021/03/14 07:52:23;;;;;;;9.35;2.45;;;5.90;99.20;;;;;;5104986;28;20059;-81
2021/03/14 07:55:14;;;;;;;11.00;2.83;;;6.00;99.20;;;;;;5105066;28;20102;-80
2021/03/14 07:57:45;;;;;;;12.02;2.88;;;6.10;99.00;;;;;;5104504;28;20113;-81
2021/03/14 08:00:40;;;;;;;9.48;2.60;;;6.20;99.10;;;;;;5105851;28;20105;-81
2021/03/14 08:03:08;;;;;;;7.38;2.75;;;6.20;99.10;;;;;;5081463;28;20063;-81
2021/03/14 08:05:40;;;;;;;13.32;2.78;;;6.30;99.00;;;;;;5105231;28;20040;-81
2021/03/14 08:08:26;;;;;;;12.07;2.83;;;6.30;98.80;;;;;;5105064;28;20052;-80
2021/03/14 08:10:53;;;;;;;7.07;2.38;;;6.40;98.50;;;;;;5086557;28;20047;-81
2021/03/14 08:13:43;;;;;;;14.85;2.85;;;6.60;98.60;;;;;;5106042;28;20188;-80
2021/03/14 08:16:14;;;;;;;13.48;3.42;;;6.70;98.50;;;;;;5068931;28;20048;-80
2021/03/14 08:18:46;;;;;;;16.55;2.80;;;6.80;98.90;;;;;;5109323;28;20051;-81
2021/03/14 08:21:21;;;;;;;12.52;3.15;;;6.90;97.90;;;;;;5108642;28;20059;-80
2021/03/14 08:23:57;;;;;;;13.13;2.70;;;6.70;97.70;;;;;;5107315;28;20075;-81
2021/03/14 08:26:24;;;;;;;12.35;3.17;;;6.80;98.50;;;;;;5098804;28;20051;-80
2021/03/14 08:29:06;;;;;;;12.27;2.70;;;6.90;98.40;;;;;;5091236;28;20044;-80
2021/03/14 08:31:54;;;;;;;11.73;3.08;;;6.90;97.20;;;;;;5097335;28;20051;-80
2021/03/14 08:34:26;;;;;;;15.18;3.40;;;6.80;98.40;;;;;;5108768;28;20043;-80
2021/03/14 08:36:54;;;;;;;11.95;3.42;;;6.90;98.10;;;;;;5109578;28;20067;-81
2021/03/14 08:39:40;;;;;;;8.30;2.47;;;6.90;97.10;;;;;;5109620;28;20094;-81
2021/03/14 08:42:07;;;;;;;11.70;3.22;;;6.90;96.60;;;;;;5108505;28;20138;-80
2021/03/14 08:44:44;;;;;;;9.00;3.55;;;6.80;96.70;;;;;;5107999;28;20497;-81
2021/03/14 08:47:13;;;;;;;11.80;2.95;;;6.90;98.30;;;;;;5108407;28;20048;-80
2021/03/14 08:49:52;;;;;;;11.77;2.90;;;7.00;97.10;;;;;;5108647;28;20051;-81
2021/03/14 08:52:19;;;;;;;11.20;2.92;;;7.00;97.40;;;;;;5108195;28;20127;-80
2021/03/14 08:54:48;;;;;;;13.98;3.00;;;7.10;97.50;;;;;;5102586;28;20061;-74
2021/03/14 08:57:16;;;;;;;8.93;3.08;;;7.20;97.00;;;;;;5106733;28;20515;-79
2021/03/14 08:59:53;;;;;;;10.93;3.42;;;7.50;97.80;;;;;;5106721;28;20039;-80
2021/03/14 09:02:24;;;;;;;10.82;2.50;;;7.40;95.40;;;;;;5106685;28;20040;-78
2021/03/14 09:04:51;;;;;;;7.18;2.92;;;7.50;96.30;;;;;;5085088;28;20067;-77
2021/03/14 09:07:18;;;;;;;12.88;2.95;;;7.50;96.20;;;;;;5086705;28;20064;-73
2021/03/14 09:09:44;;;;;;;12.48;3.08;;;7.70;96.10;;;;;;5105676;28;20040;-75
2021/03/14 09:12:15;;;;;;;13.35;2.97;;;7.70;95.50;;;;;;5104926;28;20051;-75
2021/03/14 09:14:43;;;;;;;10.38;3.03;;;7.70;96.00;;;;;;5103262;28;20040;-75
2021/03/14 09:17:12;;;;;;;10.80;2.50;;;7.70;95.50;;;;;;5086274;28;20051;-75
2021/03/14 09:19:49;;;;;;;13.02;3.30;;;7.90;94.70;;;;;;5104948;28;20032;-75
2021/03/14 09:22:18;;;;;;;15.63;3.35;;;7.90;95.30;;;;;;5105790;28;20152;-77
2021/03/14 09:24:51;;;;;;;9.07;2.45;;;7.80;94.80;;;;;;5105020;28;20046;-76
2021/03/14 09:27:19;;;;;;;13.23;3.05;;;7.90;94.50;;;;;;5104864;28;20059;-77
2021/03/14 09:29:52;;;;;;;9.55;2.83;;;8.10;95.10;;;;;;5104620;28;20053;-77
2021/03/14 09:32:23;;;;;;;11.85;2.78;;;8.10;94.60;;;;;;5105891;28;20055;-79
2021/03/14 09:34:51;;;;;;;10.70;3.55;;;8.20;94.70;;;;;;5106304;28;20100;-77
2021/03/14 09:37:28;;;;;;;9.95;2.30;;;8.40;94.20;;;;;;5069714;28;20049;-76
2021/03/14 09:40:06;;;;;;;6.95;2.47;;;8.40;92.80;;;;;;5104650;28;20035;-77
2021/03/14 09:42:32;;;;;;;8.48;2.45;;;8.40;93.50;;;;;;5107411;28;20096;-77
2021/03/14 09:45:17;;;;;;;10.52;2.83;;;8.50;94.60;;;;;;5107042;28;20074;-75
2021/03/14 09:48:10;;;;;;;9.77;2.40;;;8.70;93.30;;;;;;5102268;28;20082;-76
2021/03/14 09:51:11;;;;;;;12.68;3.10;;;8.90;93.50;;;;;;5108495;28;20052;-75
2021/03/14 09:53:39;;;;;;;9.57;2.45;;;8.60;92.10;;;;;;5024665;28;20057;-77
2021/03/14 09:56:13;;;;;;;8.88;2.40;;;8.40;92.30;;;;;;5024528;28;20136;-81
2021/03/14 09:58:39;;;;;;;11.35;2.15;;;8.30;92.10;;;;;;5023642;28;20064;-82
2021/03/14 10:01:09;;;;;;;10.55;2.08;;;8.30;92.10;;;;;;5023309;28;20092;-79
2021/03/14 10:03:35;;;;;;;8.90;2.47;;;8.20;91.40;;;;;;5023027;28;20078;-80
2021/03/14 10:06:03;;;;;;;10.80;2.70;;;8.10;92.10;;;;;;5024146;28;20057;-78
2021/03/14 10:08:35;;;;;;;10.68;1.90;;;8.10;92.70;;;;;;5031335;28;20569;-81
2021/03/14 10:11:05;;;;;;;7.35;2.00;;;8.00;91.40;;;;;;5024966;28;20042;-81
2021/03/14 10:13:32;;;;;;;;;;;7.90;92.30;;;;;;5024289;28;20066;-81
2021/03/14 10:16:00;;;;;;;7.60;2.00;;;7.70;92.90;;;;;;5022804;28;19921;-82
2021/03/14 10:18:28;;;;;;;9.18;3.03;;;7.80;93.80;;;;;;5024482;28;20084;-81
2021/03/14 10:21:14;;;;;;;8.25;2.40;;;8.10;94.50;;;;;;5023145;28;20054;-81
2021/03/14 10:23:40;;;;;;;14.05;2.45;;;8.40;94.70;;;;;;5010374;28;20526;-81
2021/03/14 10:26:10;;;;;;;10.63;2.53;;;8.50;93.40;;;;;;5014537;28;20053;-80
2021/03/14 10:28:38;;;;;;;11.82;2.42;;;8.90;93.10;;;;;;5098357;28;20063;-80
2021/03/14 10:31:06;;;;;;;7.35;1.85;;;9.00;91.40;;;;;;5105435;28;20143;-74
2021/03/14 10:33:37;;;;;;;6.40;1.77;;;9.10;93.00;;;;;;5104831;28;20044;-78
2021/03/14 10:36:06;;;;;;;8.52;1.77;;;9.00;89.40;;;;;;5103321;28;20038;-79
2021/03/14 10:38:42;;;;;;;7.10;2.22;;;8.90;89.50;;;;;;5103371;28;20051;-78
2021/03/14 10:41:20;;;;;;;7.63;2.00;;;8.40;88.40;;;;;;5103200;28;20064;-77
2021/03/14 10:43:58;;;;;;;7.55;1.98;;;8.40;91.40;;;;;;5104882;28;20043;-77
2021/03/14 10:46:41;;;;;;;8.23;1.98;;;8.80;91.40;;;;;;5102606;28;20048;-76
2021/03/14 10:49:10;;;;;;;6.28;1.60;;;9.00;90.20;;;;;;5101010;28;20055;-78
2021/03/14 10:51:37;;;;;;;6.60;2.03;;;9.00;90.90;;;;;;5106329;28;20047;-76
2021/03/14 10:54:08;;;;;;;11.05;1.95;;;9.10;93.20;;;;;;5104613;28;20048;-79
2021/03/14 10:56:36;;;;;;;5.88;1.90;;;9.00;94.10;;;;;;5104002;28;20051;-79
2021/03/14 10:59:03;;;;;;;6.05;1.83;;;9.20;93.00;;;;;;5104916;28;20063;-74
2021/03/14 11:01:40;;;;;;;7.93;1.88;;;9.50;90.90;;;;;;5081726;28;20500;-77
2021/03/14 11:04:07;;;;;;;5.80;2.05;;;9.60;92.30;;;;;;5069870;28;20146;-75
2021/03/14 11:06:34;;;;;;;5.68;1.63;;;9.30;91.00;;;;;;5091941;28;20084;-73
2021/03/14 11:09:05;;;;;;;7.47;1.27;;;9.40;88.20;;;;;;5077659;28;20040;-80
2021/03/14 11:11:48;;;;;;;5.05;1.52;;;9.60;90.20;;;;;;5097586;28;20063;-77
2021/03/14 11:14:28;;;;;;;5.78;1.42;;;9.60;91.00;;;;;;5089157;28;20048;-77
2021/03/14 11:17:13;;;;;;;;;;;9.60;89.70;;;;;;5097887;28;20036;-80
2021/03/14 11:19:41;;;;;;;3.58;1.10;;;9.80;91.10;;;;;;5088459;28;20100;-79
2021/03/14 11:22:08;;;;;;;6.65;1.85;;;9.70;85.60;;;;;;5099878;28;20060;-79
2021/03/14 11:24:34;;;;;;;7.65;1.90;;;9.50;90.90;;;;;;5093946;28;20055;-84
2021/03/14 11:27:01;;;;;;;8.07;1.90;;;9.70;91.10;;;;;;5098316;28;20069;-84
2021/03/14 11:29:27;;;;;;;7.05;2.70;;;9.90;91.70;;;;;;5088021;28;20071;-81
2021/03/14 11:31:53;;;;;;;4.07;1.50;;;9.50;89.30;;;;;;5097225;28;20044;-80
2021/03/14 11:34:20;;;;;;;7.43;1.75;;;9.20;87.40;;;;;;5091667;28;20048;-77
2021/03/14 11:36:47;;;;;;;6.32;2.58;;;8.90;91.60;;;;;;5101474;28;20083;-79
2021/03/14 11:39:14;;;;;;;5.32;1.58;;;8.70;93.00;;;;;;5088819;28;20133;-81
2021/03/14 11:41:40;;;;;;;5.15;1.25;;;8.80;94.10;;;;;;5097782;28;20048;-74
2021/03/14 11:44:07;;;;;;;5.35;1.50;;;9.00;93.10;;;;;;5090695;28;20545;-80
2021/03/14 11:46:33;;;;;;;5.18;1.80;;;9.40;91.70;;;;;;5096793;28;20076;-79
2021/03/14 11:48:59;;;;;;;5.75;1.50;;;9.60;92.20;;;;;;5089314;28;20714;-79
2021/03/14 11:51:25;;;;;;;7.55;1.90;;;9.70;89.70;;;;;;5098634;28;20072;-79
2021/03/14 11:53:51;;;;;;;6.28;1.40;;;10.00;87.00;;;;;;5100909;28;20036;-79
2021/03/14 11:56:17;;;;;;;8.20;1.65;;;10.20;91.20;;;;;;5087811;28;20552;-78
2021/03/14 11:58:43;;;;;;;6.72;1.60;;;10.40;91.90;;;;;;5096992;28;20051;-78
2021/03/14 12:01:09;;;;;;;5.50;1.73;;;10.60;89.50;;;;;;5052930;28;20072;-79
2021/03/14 12:03:35;;;;;;;5.93;1.83;;;10.50;90.00;;;;;;5089367;28;20054;-79
2021/03/14 12:06:01;;;;;;;8.80;1.73;;;10.50;89.00;;;;;;5086641;28;20054;-78
2021/03/14 12:08:27;;;;;;;7.78;2.22;;;10.20;86.80;;;;;;5100115;28;20081;-77
2021/03/14 12:10:53;;;;;;;5.25;1.52;;;10.20;87.70;;;;;;5089026;28;20039;-78
2021/03/14 12:13:20;;;;;;;5.80;1.63;;;10.10;87.80;;;;;;5100406;28;20055;-78
2021/03/14 12:15:46;;;;;;;4.63;1.60;;;9.80;88.70;;;;;;5090327;28;20036;-78
2021/03/14 12:18:11;;;;;;;5.78;1.77;;;9.40;85.60;;;;;;5100348;28;20131;-76
2021/03/14 12:20:38;;;;;;;6.25;1.83;;;9.70;83.50;;;;;;5088963;28;20113;-76
2021/03/14 12:23:04;;;;;;;6.72;1.48;;;9.80;83.30;;;;;;5100260;28;20062;-76
2021/03/14 12:25:31;;;;;;;7.72;1.60;;;10.00;85.10;;;;;;5087744;28;20044;-76
2021/03/14 12:27:56;;;;;;;5.03;1.67;;;10.10;83.50;;;;;;5097890;28;20043;-69
2021/03/14 12:30:23;;;;;;;5.68;1.38;;;10.30;84.70;;;;;;5080164;28;20041;-78
2021/03/14 12:32:48;;;;;;;6.03;1.60;;;10.50;86.50;;;;;;5087693;28;20040;-80
2021/03/14 12:35:14;;;;;;;6.15;1.38;;;10.80;85.10;;;;;;5088771;28;20044;-80
2021/03/14 12:37:41;;;;;;;5.35;1.50;;;11.00;85.20;;;;;;5096366;28;20050;-77
2021/03/14 12:40:07;;;;;;;4.75;1.23;;;11.30;81.40;;;;;;5087209;28;20120;-77
2021/03/14 12:42:34;;;;;;;9.38;1.67;;;11.50;82.70;;;;;;5096431;28;20044;-81
2021/03/14 12:44:59;;;;;;;6.88;1.70;;;11.70;81.40;;;;;;5081282;28;20067;-73
2021/03/14 12:47:25;;;;;;;10.30;1.90;;;10.80;76.40;;;;;;5096074;28;20036;-79
2021/03/14 12:49:52;;;;;;;7.30;1.63;;;10.20;90.80;;;;;;5085761;28;20436;-80
2021/03/14 12:52:19;;;;;;;9.15;2.42;;;9.50;92.10;;;;;;5096357;28;20056;-76
2021/03/14 12:54:44;;;;;;;7.32;1.20;;;9.40;90.80;;;;;;5086407;28;20048;-78
2021/03/14 12:57:10;;;;;;;5.65;1.63;;;9.90;89.90;;;;;;5080837;28;20043;-77
2021/03/14 12:59:36;;;;;;;7.65;1.75;;;10.60;86.30;;;;;;5090893;28;20509;-77